Time;durP1;ratioP1;P1;durP2;ratioP2;P2;SDS_P1;SDS_P2;PMS_P1;PMS_P2;Temp;Humidity;BMP_temperature;BMP_pressure;BME280_temperature;BME280_humidity;BME280_pressure;Samples;Min_cycle;Max_cycle;Signal;HPM_P1;HPM_P2
2021/08/13 00:00:18;;;;;;;21.00;14.50;;;;;;;;;;5073735;28;20441;-82
2021/08/13 00:02:45;;;;;;;16.10;14.40;;;;;;;;;;5073812;28;20484;-82
2021/08/13 00:05:14;;;;;;;18.17;15.07;;;;;;;;;;5073806;28;20451;-82
2021/08/13 00:07:41;;;;;;;18.50;14.87;;;;;;;;;;5072589;28;20445;-83
2021/08/13 00:10:09;;;;;;;19.10;16.30;;;;;;;;;;5075286;28;20453;-84
2021/08/13 00:12:36;;;;;;;19.93;15.63;;;;;;;;;;5073960;28;20801;-85
2021/08/13 00:15:03;;;;;;;15.77;14.17;;;;;;;;;;5073481;28;20534;-85
2021/08/13 00:17:30;;;;;;;17.77;15.03;;;;;;;;;;5073319;28;20448;-83
2021/08/13 00:19:57;;;;;;;18.17;15.53;;;;;;;;;;5072988;28;20424;-84
2021/08/13 00:22:26;;;;;;;23.10;15.07;;;;;;;;;;5073493;28;20480;-85
2021/08/13 00:24:53;;;;;;;20.50;15.27;;;;;;;;;;5073174;28;20438;-85
2021/08/13 00:27:20;;;;;;;19.27;17.20;;;;;;;;;;5073302;28;20966;-85
2021/08/13 00:29:48;;;;;;;20.50;15.20;;;;;;;;;;5073672;28;20523;-85
2021/08/13 00:32:15;;;;;;;19.30;15.47;;;;;;;;;;5072942;28;20942;-84
2021/08/13 00:34:42;;;;;;;19.90;15.50;;;;;;;;;;5074025;28;20441;-85
2021/08/13 00:37:09;;;;;;;20.30;15.57;;;;;;;;;;5071369;28;20446;-85
2021/08/13 00:39:38;;;;;;;18.17;16.17;;;;;;;;;;5073245;28;20790;-85
2021/08/13 00:42:05;;;;;;;30.37;18.03;;;;;;;;;;5073492;28;20479;-84
2021/08/13 00:44:32;;;;;;;20.20;15.33;;;;;;;;;;5073107;28;20789;-84
2021/08/13 00:47:00;;;;;;;18.60;15.20;;;;;;;;;;5073663;28;20800;-84
2021/08/13 00:49:27;;;;;;;19.13;16.63;;;;;;;;;;5073464;28;20453;-85
2021/08/13 00:51:54;;;;;;;21.10;16.30;;;;;;;;;;5072784;28;20974;-85
2021/08/13 00:54:22;;;;;;;20.60;16.13;;;;;;;;;;5073190;28;20454;-85
2021/08/13 00:56:51;;;;;;;20.53;16.10;;;;;;;;;;5073032;28;20446;-84
2021/08/13 00:59:18;;;;;;;17.67;14.77;;;;;;;;;;5073235;28;20451;-84
2021/08/13 01:01:45;;;;;;;21.60;16.00;;;;;;;;;;5072795;28;20474;-83
2021/08/13 01:04:13;;;;;;;17.67;15.87;;;;;;;;;;5073648;28;20437;-83
2021/08/13 01:06:40;;;;;;;17.97;16.00;;;;;;;;;;5072790;28;20939;-82
2021/08/13 01:09:07;;;;;;;19.03;16.63;;;;;;;;;;5070797;28;20438;-84
2021/08/13 01:11:46;;;;;;;19.67;16.63;;;;;;;;;;5072724;28;20440;-84
2021/08/13 01:14:16;;;;;;;24.13;16.30;;;;;;;;;;5073895;28;20512;-84
2021/08/13 01:16:45;;;;;;;26.37;17.27;;;;;;;;;;5073636;28;20429;-84
2021/08/13 01:19:14;;;;;;;17.97;16.10;;;;;;;;;;5072594;28;20477;-84
2021/08/13 01:21:45;;;;;;;20.30;16.73;;;;;;;;;;5072923;28;20447;-84
2021/08/13 01:24:16;;;;;;;24.07;16.97;;;;;;;;;;5073052;28;20444;-85
2021/08/13 01:26:45;;;;;;;19.97;17.53;;;;;;;;;;5075340;28;20426;-84
2021/08/13 01:29:18;;;;;;;20.80;15.20;;;;;;;;;;5075983;28;20477;-83
2021/08/13 01:31:52;;;;;;;22.83;17.33;;;;;;;;;;5076746;28;20424;-83
2021/08/13 01:34:21;;;;;;;21.23;15.87;;;;;;;;;;5076209;28;20437;-83
2021/08/13 01:36:51;;;;;;;17.73;15.63;;;;;;;;;;5076631;28;20492;-83
2021/08/13 01:39:18;;;;;;;19.10;16.53;;;;;;;;;;5074916;28;20446;-84
2021/08/13 01:41:46;;;;;;;19.73;16.23;;;;;;;;;;5076005;28;20448;-84
2021/08/13 01:44:13;;;;;;;19.40;15.30;;;;;;;;;;5075971;28;20444;-84
2021/08/13 01:46:42;;;;;;;18.50;15.43;;;;;;;;;;5075657;28;20454;-84
2021/08/13 01:49:10;;;;;;;18.93;15.97;;;;;;;;;;5076256;28;20444;-84
2021/08/13 01:51:39;;;;;;;19.20;15.53;;;;;;;;;;5076160;28;20784;-84
2021/08/13 01:54:07;;;;;;;21.77;16.43;;;;;;;;;;5076046;28;20966;-84
2021/08/13 01:56:34;;;;;;;18.20;15.90;;;;;;;;;;5075804;28;20964;-84
2021/08/13 01:59:02;;;;;;;17.40;15.20;;;;;;;;;;5075573;28;20792;-84
2021/08/13 02:01:30;;;;;;;16.93;15.13;;;;;;;;;;5076412;28;20447;-84
2021/08/13 02:03:57;;;;;;;17.93;16.00;;;;;;;;;;5075847;28;20478;-84
2021/08/13 02:06:26;;;;;;;19.23;15.33;;;;;;;;;;5074389;28;20443;-83
2021/08/13 02:08:55;;;;;;;18.87;14.40;;;;;;;;;;5074867;28;20527;-84
2021/08/13 02:11:23;;;;;;;16.50;14.47;;;;;;;;;;5075397;28;20994;-84
2021/08/13 02:13:50;;;;;;;17.07;15.23;;;;;;;;;;5075801;28;20448;-84
2021/08/13 02:16:21;;;;;;;20.50;15.50;;;;;;;;;;5075665;28;20439;-83
2021/08/13 02:18:51;;;;;;;20.30;15.40;;;;;;;;;;5074790;28;20476;-83
2021/08/13 02:21:18;;;;;;;17.40;14.70;;;;;;;;;;5075020;28;20914;-83
2021/08/13 02:23:46;;;;;;;16.77;14.93;;;;;;;;;;5075689;28;20481;-83
2021/08/13 02:26:14;;;;;;;17.87;14.50;;;;;;;;;;5075672;28;20524;-83
2021/08/13 02:28:41;;;;;;;20.43;14.37;;;;;;;;;;5075494;28;20463;-85
2021/08/13 02:31:08;;;;;;;18.67;15.70;;;;;;;;;;5075484;28;20446;-84
2021/08/13 02:33:36;;;;;;;18.50;15.40;;;;;;;;;;5074718;28;20452;-85
2021/08/13 02:36:06;;;;;;;19.53;15.57;;;;;;;;;;5074951;28;20441;-84
2021/08/13 02:38:35;;;;;;;17.70;15.27;;;;;;;;;;5073315;28;20949;-83
2021/08/13 02:41:03;;;;;;;18.07;15.83;;;;;;;;;;5074756;28;20454;-83
2021/08/13 02:43:34;;;;;;;16.90;14.63;;;;;;;;;;5075020;28;20477;-83
2021/08/13 02:46:02;;;;;;;25.43;15.87;;;;;;;;;;5075328;28;20766;-83
2021/08/13 02:48:30;;;;;;;21.67;16.17;;;;;;;;;;5074955;28;20461;-83
2021/08/13 02:50:58;;;;;;;20.50;15.33;;;;;;;;;;5074666;28;20930;-83
2021/08/13 02:53:26;;;;;;;22.00;15.17;;;;;;;;;;5074886;28;20442;-83
2021/08/13 02:55:56;;;;;;;22.10;14.90;;;;;;;;;;5074825;28;20437;-84
2021/08/13 02:58:25;;;;;;;19.53;15.33;;;;;;;;;;5074677;28;20441;-84
2021/08/13 03:00:54;;;;;;;19.53;15.70;;;;;;;;;;5074620;28;20442;-84
2021/08/13 03:03:23;;;;;;;18.77;16.00;;;;;;;;;;5074646;28;20486;-83
2021/08/13 03:05:52;;;;;;;17.73;15.20;;;;;;;;;;5074775;28;20449;-84
2021/08/13 03:08:20;;;;;;;18.77;15.53;;;;;;;;;;5073272;28;20451;-83
2021/08/13 03:10:47;;;;;;;18.27;14.90;;;;;;;;;;5073903;28;20437;-83
2021/08/13 03:13:15;;;;;;;22.00;14.70;;;;;;;;;;5074586;28;20445;-85
2021/08/13 03:15:43;;;;;;;18.30;14.77;;;;;;;;;;5074405;28;20439;-84
2021/08/13 03:18:11;;;;;;;21.33;16.23;;;;;;;;;;5074159;28;20470;-85
2021/08/13 03:20:39;;;;;;;17.20;15.40;;;;;;;;;;5073920;28;20961;-85
2021/08/13 03:23:07;;;;;;;18.67;16.40;;;;;;;;;;5074171;28;20474;-85
2021/08/13 03:25:34;;;;;;;19.17;15.80;;;;;;;;;;5073973;28;20600;-85
2021/08/13 03:28:01;;;;;;;23.50;15.07;;;;;;;;;;5073929;28;20454;-84
2021/08/13 03:30:29;;;;;;;16.87;14.40;;;;;;;;;;5074108;28;20446;-84
2021/08/13 03:33:11;;;;;;;18.17;14.10;;;;;;;;;;5074209;28;20442;-84
2021/08/13 03:35:39;;;;;;;18.70;14.53;;;;;;;;;;5071551;28;20538;-84
2021/08/13 03:38:07;;;;;;;18.80;14.90;;;;;;;;;;5074451;28;20448;-84
2021/08/13 03:40:34;;;;;;;18.07;16.10;;;;;;;;;;5071622;28;20445;-84
2021/08/13 03:43:01;;;;;;;17.43;14.30;;;;;;;;;;5073955;28;20478;-84
2021/08/13 03:45:29;;;;;;;21.33;16.40;;;;;;;;;;5073939;28;20452;-84
2021/08/13 03:47:56;;;;;;;25.87;16.80;;;;;;;;;;5073340;28;20441;-84
2021/08/13 03:50:23;;;;;;;18.07;14.77;;;;;;;;;;5073549;28;20449;-84
2021/08/13 03:52:51;;;;;;;19.43;14.90;;;;;;;;;;5073843;28;20452;-83
2021/08/13 03:55:19;;;;;;;21.03;16.20;;;;;;;;;;5073960;28;20806;-84
2021/08/13 03:57:46;;;;;;;18.60;15.23;;;;;;;;;;5074023;28;20440;-84
2021/08/13 04:00:13;;;;;;;21.50;15.80;;;;;;;;;;5073073;28;20517;-84
2021/08/13 04:02:41;;;;;;;16.67;14.47;;;;;;;;;;5074119;28;20441;-84
2021/08/13 04:05:08;;;;;;;16.50;14.30;;;;;;;;;;5074176;28;20447;-84
2021/08/13 04:07:35;;;;;;;18.03;14.73;;;;;;;;;;5073804;28;20441;-82
2021/08/13 04:10:04;;;;;;;18.50;14.83;;;;;;;;;;5071332;28;20449;-82
2021/08/13 04:12:31;;;;;;;18.93;14.20;;;;;;;;;;5073796;28;20457;-81
2021/08/13 04:14:58;;;;;;;15.57;13.97;;;;;;;;;;5073308;28;20440;-78
2021/08/13 04:17:26;;;;;;;16.93;15.13;;;;;;;;;;5073425;28;20444;-81
2021/08/13 04:19:53;;;;;;;21.80;15.67;;;;;;;;;;5073043;28;20599;-83
2021/08/13 04:22:20;;;;;;;16.67;14.00;;;;;;;;;;5073174;28;20447;-81
2021/08/13 04:24:47;;;;;;;20.00;15.27;;;;;;;;;;5073273;28;20473;-79
2021/08/13 04:27:16;;;;;;;19.73;14.40;;;;;;;;;;5072519;28;20881;-81
2021/08/13 04:29:43;;;;;;;18.60;13.50;;;;;;;;;;5072545;28;20929;-81
2021/08/13 04:32:10;;;;;;;20.23;14.40;;;;;;;;;;5072204;28;20495;-80
2021/08/13 04:34:37;;;;;;;15.33;13.63;;;;;;;;;;5071768;28;20874;-80
2021/08/13 04:37:05;;;;;;;24.30;15.10;;;;;;;;;;5072171;28;20440;-81
2021/08/13 04:39:32;;;;;;;17.90;14.67;;;;;;;;;;5070384;28;20524;-81
2021/08/13 04:41:59;;;;;;;17.13;15.27;;;;;;;;;;5073217;28;20437;-80
2021/08/13 04:44:27;;;;;;;18.67;14.93;;;;;;;;;;5072944;28;20468;-80
2021/08/13 04:46:55;;;;;;;17.87;15.17;;;;;;;;;;5073264;28;20447;-80
2021/08/13 04:49:22;;;;;;;21.80;16.80;;;;;;;;;;5073094;28;20490;-81
2021/08/13 04:51:49;;;;;;;25.97;16.20;;;;;;;;;;5073169;28;20448;-81
2021/08/13 04:54:16;;;;;;;26.53;17.70;;;;;;;;;;5073871;28;20547;-81
2021/08/13 04:56:43;;;;;;;23.63;15.40;;;;;;;;;;5072864;28;20935;-82
2021/08/13 04:59:10;;;;;;;24.67;16.30;;;;;;;;;;5071463;28;20448;-81
2021/08/13 05:01:39;;;;;;;24.20;16.97;;;;;;;;;;5074257;28;20445;-79
2021/08/13 05:04:07;;;;;;;26.87;17.03;;;;;;;;;;5076107;28;20476;-80
2021/08/13 05:06:34;;;;;;;21.73;16.90;;;;;;;;;;5076115;28;20943;-80
2021/08/13 05:09:01;;;;;;;23.00;16.20;;;;;;;;;;5075755;28;20532;-79
2021/08/13 05:11:29;;;;;;;21.17;15.10;;;;;;;;;;5075536;28;20451;-80
2021/08/13 05:13:56;;;;;;;20.63;15.30;;;;;;;;;;5076812;28;20821;-79
2021/08/13 05:16:23;;;;;;;24.20;15.77;;;;;;;;;;5076428;28;20809;-80
2021/08/13 05:18:51;;;;;;;17.50;15.30;;;;;;;;;;5076426;28;20483;-79
2021/08/13 05:21:19;;;;;;;20.57;14.30;;;;;;;;;;5076433;28;20451;-79
2021/08/13 05:23:46;;;;;;;20.73;17.23;;;;;;;;;;5075654;28;20473;-80
2021/08/13 05:26:13;;;;;;;18.50;15.30;;;;;;;;;;5076526;28;20441;-80
2021/08/13 05:28:40;;;;;;;16.53;14.80;;;;;;;;;;5075938;28;20440;-75
2021/08/13 05:31:08;;;;;;;20.80;13.97;;;;;;;;;;5076593;28;20472;-75
2021/08/13 05:33:35;;;;;;;18.67;15.40;;;;;;;;;;5076494;28;20489;-74
2021/08/13 05:36:03;;;;;;;19.07;14.30;;;;;;;;;;5076068;28;20529;-74
2021/08/13 05:38:30;;;;;;;17.37;15.10;;;;;;;;;;5075991;28;20450;-74
2021/08/13 05:40:58;;;;;;;18.27;15.83;;;;;;;;;;5074104;28;20517;-74
2021/08/13 05:43:25;;;;;;;18.57;14.40;;;;;;;;;;5075601;28;20468;-74
2021/08/13 05:45:52;;;;;;;25.60;15.73;;;;;;;;;;5075877;28;20455;-74
2021/08/13 05:48:19;;;;;;;20.43;15.83;;;;;;;;;;5075417;28;20451;-75
2021/08/13 05:50:46;;;;;;;19.83;15.10;;;;;;;;;;5075571;28;20446;-75
2021/08/13 05:53:15;;;;;;;20.63;16.10;;;;;;;;;;5075595;28;20434;-75
2021/08/13 05:55:45;;;;;;;24.10;15.37;;;;;;;;;;5075956;28;20437;-75
2021/08/13 05:58:12;;;;;;;31.03;21.43;;;;;;;;;;5076158;28;20834;-75
2021/08/13 06:00:40;;;;;;;22.27;17.83;;;;;;;;;;5075396;28;20533;-75
2021/08/13 06:03:07;;;;;;;26.67;16.37;;;;;;;;;;5075785;28;20450;-75
2021/08/13 06:05:34;;;;;;;18.73;15.50;;;;;;;;;;5075839;28;20449;-76
2021/08/13 06:08:01;;;;;;;21.93;16.00;;;;;;;;;;5075788;28;20447;-75
2021/08/13 06:10:30;;;;;;;21.30;15.23;;;;;;;;;;5075585;28;20555;-75
2021/08/13 06:12:57;;;;;;;26.53;16.43;;;;;;;;;;5073515;28;20469;-75
2021/08/13 06:15:24;;;;;;;18.13;14.93;;;;;;;;;;5074594;28;20462;-75
2021/08/13 06:17:51;;;;;;;20.57;15.57;;;;;;;;;;5074187;28;20474;-75
2021/08/13 06:20:20;;;;;;;21.80;15.50;;;;;;;;;;5075215;28;20438;-75
2021/08/13 06:22:48;;;;;;;18.20;15.00;;;;;;;;;;5074976;28;20434;-76
2021/08/13 06:25:15;;;;;;;20.00;15.30;;;;;;;;;;5075016;28;20480;-75
2021/08/13 06:27:44;;;;;;;22.00;15.43;;;;;;;;;;5075654;28;20445;-76
2021/08/13 06:30:12;;;;;;;17.23;13.30;;;;;;;;;;5075370;28;20457;-76
2021/08/13 06:32:40;;;;;;;21.87;13.73;;;;;;;;;;5075020;28;20537;-76
2021/08/13 06:35:07;;;;;;;18.63;14.40;;;;;;;;;;5074932;28;20446;-76
2021/08/13 06:37:34;;;;;;;19.90;12.90;;;;;;;;;;5074861;28;20440;-76
2021/08/13 06:40:02;;;;;;;16.77;12.87;;;;;;;;;;5074794;28;20455;-76
2021/08/13 06:42:49;;;;;;;18.30;12.27;;;;;;;;;;5073362;28;20448;-76
2021/08/13 06:45:19;;;;;;;14.23;12.77;;;;;;;;;;5074460;28;20483;-76
2021/08/13 06:47:46;;;;;;;18.37;13.77;;;;;;;;;;5075030;28;20815;-76
2021/08/13 06:50:14;;;;;;;18.07;13.50;;;;;;;;;;5074704;28;20452;-76
2021/08/13 06:52:41;;;;;;;20.23;13.43;;;;;;;;;;5074662;28;20444;-76
2021/08/13 06:55:09;;;;;;;15.90;12.97;;;;;;;;;;5074969;28;20457;-77
2021/08/13 06:57:36;;;;;;;23.13;15.70;;;;;;;;;;5075199;28;20527;-77
2021/08/13 07:00:05;;;;;;;18.30;13.97;;;;;;;;;;5075173;28;20439;-77
2021/08/13 07:02:33;;;;;;;24.93;12.90;;;;;;;;;;5073870;28;20479;-77
2021/08/13 07:05:00;;;;;;;19.00;14.63;;;;;;;;;;5074693;28;20476;-77
2021/08/13 07:07:27;;;;;;;19.37;12.53;;;;;;;;;;5074702;28;20531;-77
2021/08/13 07:09:55;;;;;;;18.07;13.40;;;;;;;;;;5074984;28;20810;-77
2021/08/13 07:12:22;;;;;;;15.57;13.00;;;;;;;;;;5073601;28;20440;-77
2021/08/13 07:14:49;;;;;;;18.87;12.60;;;;;;;;;;5074049;28;20921;-77
2021/08/13 07:17:16;;;;;;;20.50;13.50;;;;;;;;;;5073862;28;20953;-76
2021/08/13 07:19:45;;;;;;;18.13;12.37;;;;;;;;;;5074102;28;20935;-77
2021/08/13 07:22:12;;;;;;;14.30;12.27;;;;;;;;;;5072637;28;20459;-77
2021/08/13 07:24:39;;;;;;;21.43;13.37;;;;;;;;;;5073023;28;20570;-77
2021/08/13 07:27:06;;;;;;;18.10;12.03;;;;;;;;;;5074633;28;20447;-77
2021/08/13 07:29:33;;;;;;;19.80;14.07;;;;;;;;;;5074489;28;20445;-78
2021/08/13 07:32:01;;;;;;;18.67;13.10;;;;;;;;;;5073380;28;20439;-77
2021/08/13 07:34:28;;;;;;;18.20;13.40;;;;;;;;;;5072721;28;20445;-77
2021/08/13 07:36:56;;;;;;;14.20;12.70;;;;;;;;;;5073137;28;20441;-77
2021/08/13 07:39:23;;;;;;;18.10;13.83;;;;;;;;;;5074079;28;20442;-77
2021/08/13 07:41:51;;;;;;;19.67;14.00;;;;;;;;;;5073736;28;20529;-77
2021/08/13 07:44:18;;;;;;;19.60;14.10;;;;;;;;;;5073812;28;20520;-78
2021/08/13 07:46:45;;;;;;;22.40;14.90;;;;;;;;;;5073822;28;20523;-76
2021/08/13 07:49:12;;;;;;;21.77;14.90;;;;;;;;;;5073856;28;20919;-77
2021/08/13 07:51:40;;;;;;;15.23;13.03;;;;;;;;;;5073232;28;20550;-77
2021/08/13 07:54:09;;;;;;;17.77;14.87;;;;;;;;;;5053272;28;20483;-77
2021/08/13 07:56:36;;;;;;;15.07;13.20;;;;;;;;;;5053520;28;20445;-78
2021/08/13 07:59:03;;;;;;;19.10;14.00;;;;;;;;;;5053658;28;20932;-77
2021/08/13 08:01:31;;;;;;;18.77;15.43;;;;;;;;;;5053692;28;20439;-78
2021/08/13 08:03:58;;;;;;;20.50;16.07;;;;;;;;;;5053086;28;20444;-79
2021/08/13 08:06:28;;;;;;;17.43;15.63;;;;;;;;;;5053318;28;20450;-78
2021/08/13 08:08:55;;;;;;;18.07;15.60;;;;;;;;;;5053246;28;20443;-78
2021/08/13 08:11:24;;;;;;;19.20;16.87;;;;;;;;;;5052947;28;20444;-77
2021/08/13 08:13:51;;;;;;;19.37;16.33;;;;;;;;;;5053451;28;20445;-78
2021/08/13 08:16:18;;;;;;;21.80;16.40;;;;;;;;;;5053876;28;20440;-77
2021/08/13 08:18:46;;;;;;;24.20;17.63;;;;;;;;;;5053169;28;20477;-77
2021/08/13 08:21:13;;;;;;;20.10;18.00;;;;;;;;;;5053071;28;20454;-79
2021/08/13 08:23:40;;;;;;;19.57;16.53;;;;;;;;;;5068137;28;20450;-78
2021/08/13 08:26:07;;;;;;;18.30;14.93;;;;;;;;;;5072714;28;20998;-76
2021/08/13 08:28:41;;;;;;;18.90;15.57;;;;;;;;;;5073415;28;20809;-77
2021/08/13 08:31:08;;;;;;;18.60;14.57;;;;;;;;;;5073431;28;20518;-76
2021/08/13 08:33:35;;;;;;;14.90;13.37;;;;;;;;;;5073300;28;20442;-76
2021/08/13 08:36:03;;;;;;;21.97;15.90;;;;;;;;;;5076012;28;20464;-76
2021/08/13 08:38:30;;;;;;;19.20;15.40;;;;;;;;;;5077611;28;20439;-75
2021/08/13 08:40:57;;;;;;;20.53;18.33;;;;;;;;;;5077134;28;20445;-77
2021/08/13 08:43:24;;;;;;;21.27;18.70;;;;;;;;;;5077231;28;20888;-74
2021/08/13 08:45:53;;;;;;;20.77;18.47;;;;;;;;;;5077210;28;20481;-76
2021/08/13 08:48:20;;;;;;;21.40;19.13;;;;;;;;;;5077155;28;20459;-75
2021/08/13 08:50:48;;;;;;;24.80;19.77;;;;;;;;;;5077839;28;20529;-75
2021/08/13 08:53:16;;;;;;;22.33;19.93;;;;;;;;;;5075109;28;20534;-75
2021/08/13 08:55:43;;;;;;;23.80;19.50;;;;;;;;;;5077235;28;20534;-76
2021/08/13 08:58:11;;;;;;;27.03;20.97;;;;;;;;;;5076807;28;20946;-74
2021/08/13 09:00:38;;;;;;;24.07;20.60;;;;;;;;;;5076888;28;20441;-75
2021/08/13 09:03:07;;;;;;;25.13;20.10;;;;;;;;;;5076758;28;20449;-76
2021/08/13 09:05:35;;;;;;;26.30;20.10;;;;;;;;;;5076758;28;20575;-73
2021/08/13 09:08:02;;;;;;;23.80;19.17;;;;;;;;;;5076507;28;20485;-74
2021/08/13 09:10:29;;;;;;;22.97;18.80;;;;;;;;;;5076654;28;21014;-77
2021/08/13 09:12:56;;;;;;;23.50;19.17;;;;;;;;;;5076405;28;20442;-73
2021/08/13 09:15:27;;;;;;;27.37;20.80;;;;;;;;;;5076255;28;20452;-77
2021/08/13 09:18:16;;;;;;;23.10;20.17;;;;;;;;;;5076288;28;20981;-73
2021/08/13 09:20:44;;;;;;;25.90;18.10;;;;;;;;;;5076644;28;20897;-75
2021/08/13 09:23:11;;;;;;;20.93;16.63;;;;;;;;;;5074189;28;20445;-71
2021/08/13 09:25:39;;;;;;;20.37;17.43;;;;;;;;;;5075955;28;20486;-77
2021/08/13 09:28:06;;;;;;;21.20;16.93;;;;;;;;;;5076695;28;20440;-75
2021/08/13 09:30:33;;;;;;;18.70;15.90;;;;;;;;;;5076429;28;20456;-73
2021/08/13 09:33:04;;;;;;;18.40;16.47;;;;;;;;;;5075697;28;20434;-75
2021/08/13 09:35:36;;;;;;;20.20;16.10;;;;;;;;;;5076149;28;20491;-79
2021/08/13 09:38:04;;;;;;;21.93;16.70;;;;;;;;;;5075677;28;20439;-74
2021/08/13 09:40:37;;;;;;;18.23;15.10;;;;;;;;;;5076311;28;20453;-75
2021/08/13 09:43:05;;;;;;;17.50;14.63;;;;;;;;;;5076722;28;20430;-76
2021/08/13 09:45:32;;;;;;;18.03;15.60;;;;;;;;;;5076043;28;20982;-76
2021/08/13 09:47:59;;;;;;;23.80;17.13;;;;;;;;;;5076184;28;20437;-75
2021/08/13 09:50:38;;;;;;;23.80;17.93;;;;;;;;;;5075930;28;20500;-76
2021/08/13 09:53:07;;;;;;;20.37;16.53;;;;;;;;;;5074485;28;20465;-75
2021/08/13 09:55:34;;;;;;;22.07;15.87;;;;;;;;;;5075973;28;20448;-75
2021/08/13 09:58:01;;;;;;;19.10;16.60;;;;;;;;;;5075988;28;20444;-77
2021/08/13 10:00:29;;;;;;;19.73;17.17;;;;;;;;;;5075645;28;20791;-77
2021/08/13 10:03:03;;;;;;;22.30;17.40;;;;;;;;;;5075522;28;21012;-77
2021/08/13 10:05:31;;;;;;;21.40;17.40;;;;;;;;;;5075465;28;20467;-79
2021/08/13 10:08:00;;;;;;;18.67;16.60;;;;;;;;;;5075390;28;20447;-77
2021/08/13 10:10:28;;;;;;;20.57;17.33;;;;;;;;;;5075917;28;20440;-75
2021/08/13 10:12:55;;;;;;;19.50;15.70;;;;;;;;;;5075441;28;20540;-76
2021/08/13 10:15:30;;;;;;;16.13;14.43;;;;;;;;;;5075498;28;20442;-74
2021/08/13 10:17:57;;;;;;;20.37;15.20;;;;;;;;;;5075512;28;20467;-77
2021/08/13 10:20:25;;;;;;;18.63;16.30;;;;;;;;;;5075321;28;20429;-75
2021/08/13 10:22:52;;;;;;;17.37;15.00;;;;;;;;;;5073144;28;20468;-72
2021/08/13 10:25:22;;;;;;;17.47;13.97;;;;;;;;;;5074550;28;20482;-79
2021/08/13 10:27:50;;;;;;;18.60;16.10;;;;;;;;;;5075466;28;20468;-76
2021/08/13 10:30:17;;;;;;;22.20;18.07;;;;;;;;;;5075042;28;20966;-75
2021/08/13 10:32:45;;;;;;;17.10;14.63;;;;;;;;;;5075174;28;20446;-75
2021/08/13 10:35:12;;;;;;;21.00;15.60;;;;;;;;;;5075074;28;20462;-75
2021/08/13 10:37:39;;;;;;;17.33;14.93;;;;;;;;;;5074485;28;20458;-76
2021/08/13 10:40:09;;;;;;;18.73;15.20;;;;;;;;;;5074977;28;20443;-77
2021/08/13 10:42:39;;;;;;;17.47;14.50;;;;;;;;;;5074715;28;20456;-73
2021/08/13 10:45:08;;;;;;;18.73;16.17;;;;;;;;;;5074450;28;20482;-76
2021/08/13 10:47:38;;;;;;;19.47;15.37;;;;;;;;;;5075512;28;20450;-74
2021/08/13 10:50:06;;;;;;;16.47;14.10;;;;;;;;;;5074797;28;20440;-74
2021/08/13 10:52:35;;;;;;;20.60;17.47;;;;;;;;;;5074630;28;20459;-73
2021/08/13 10:55:03;;;;;;;21.07;17.73;;;;;;;;;;5073388;28;20950;-75
2021/08/13 10:57:48;;;;;;;22.73;16.73;;;;;;;;;;5074315;28;20490;-75
2021/08/13 11:00:19;;;;;;;19.70;14.87;;;;;;;;;;5074932;28;20469;-75
2021/08/13 11:03:01;;;;;;;20.57;15.70;;;;;;;;;;5074565;28;20438;-75
2021/08/13 11:05:47;;;;;;;24.70;18.53;;;;;;;;;;5073982;28;20839;-75
2021/08/13 11:08:14;;;;;;;26.13;20.00;;;;;;;;;;5074737;28;20446;-76
2021/08/13 11:10:57;;;;;;;24.00;19.70;;;;;;;;;;5074623;28;20440;-75
2021/08/13 11:13:25;;;;;;;26.23;20.40;;;;;;;;;;5074483;28;20450;-77
2021/08/13 11:15:54;;;;;;;23.17;16.63;;;;;;;;;;5074244;28;20537;-77
2021/08/13 11:18:34;;;;;;;20.07;17.73;;;;;;;;;;5074060;28;20480;-76
2021/08/13 11:21:01;;;;;;;23.73;18.87;;;;;;;;;;5074133;28;20473;-75
2021/08/13 11:23:29;;;;;;;18.40;15.87;;;;;;;;;;5074361;28;20441;-76
2021/08/13 11:25:56;;;;;;;17.00;15.10;;;;;;;;;;5071990;28;20477;-75
2021/08/13 11:28:24;;;;;;;16.03;13.20;;;;;;;;;;5074209;28;20433;-77
2021/08/13 11:30:52;;;;;;;13.60;10.50;;;;;;;;;;5073879;28;20441;-77
2021/08/13 11:33:42;;;;;;;11.07;9.60;;;;;;;;;;5074290;28;20929;-74
2021/08/13 11:36:10;;;;;;;10.80;9.20;;;;;;;;;;5072558;28;20441;-81
2021/08/13 11:38:56;;;;;;;11.40;8.43;;;;;;;;;;5072981;28;20941;-76
2021/08/13 11:41:26;;;;;;;13.20;9.30;;;;;;;;;;5074347;28;20438;-77
2021/08/13 11:43:54;;;;;;;11.87;9.90;;;;;;;;;;5073455;28;20470;-76
2021/08/13 11:46:25;;;;;;;9.60;8.60;;;;;;;;;;5073453;28;20484;-75
2021/08/13 11:48:55;;;;;;;8.73;7.10;;;;;;;;;;5074528;28;20450;-76
2021/08/13 11:51:23;;;;;;;12.13;8.10;;;;;;;;;;5073646;28;20437;-73
2021/08/13 11:53:50;;;;;;;7.13;6.37;;;;;;;;;;5074044;28;20447;-77
2021/08/13 11:56:25;;;;;;;5.73;5.30;;;;;;;;;;5071185;28;20452;-77
2021/08/13 11:59:02;;;;;;;5.70;5.17;;;;;;;;;;5073776;28;20508;-76
2021/08/13 12:01:30;;;;;;;11.23;5.63;;;;;;;;;;5073724;28;20437;-76
2021/08/13 12:03:58;;;;;;;5.00;4.33;;;;;;;;;;5073611;28;20441;-76
2021/08/13 12:06:26;;;;;;;5.80;4.37;;;;;;;;;;5073073;28;20981;-75
2021/08/13 12:08:53;;;;;;;5.20;4.40;;;;;;;;;;5073600;28;20447;-75
2021/08/13 12:11:24;;;;;;;6.30;4.40;;;;;;;;;;5073304;28;20530;-76
2021/08/13 12:13:52;;;;;;;4.07;3.77;;;;;;;;;;5073354;28;20447;-72
2021/08/13 12:16:21;;;;;;;6.13;5.27;;;;;;;;;;5073292;28;20545;-73
2021/08/13 12:18:48;;;;;;;4.90;4.40;;;;;;;;;;5073427;28;21023;-74
2021/08/13 12:21:19;;;;;;;4.83;4.43;;;;;;;;;;5073410;28;20865;-76
2021/08/13 12:23:56;;;;;;;5.60;3.77;;;;;;;;;;5074216;28;20849;-76
2021/08/13 12:26:27;;;;;;;5.30;3.93;;;;;;;;;;5071154;28;20834;-75
2021/08/13 12:28:54;;;;;;;3.93;3.63;;;;;;;;;;5073123;28;20437;-72
2021/08/13 12:31:22;;;;;;;3.50;3.20;;;;;;;;;;5073345;28;20839;-72
2021/08/13 12:33:56;;;;;;;5.30;3.20;;;;;;;;;;5073831;28;20491;-75
2021/08/13 12:36:25;;;;;;;4.10;3.77;;;;;;;;;;5073070;28;20442;-75
2021/08/13 12:38:58;;;;;;;4.30;3.83;;;;;;;;;;5073421;28;20788;-77
2021/08/13 12:41:25;;;;;;;3.97;3.50;;;;;;;;;;5073574;28;20451;-77
2021/08/13 12:43:53;;;;;;;5.43;3.30;;;;;;;;;;5073570;28;20524;-70
2021/08/13 12:46:20;;;;;;;4.03;3.63;;;;;;;;;;5073221;28;20499;-77
2021/08/13 12:48:47;;;;;;;5.30;3.40;;;;;;;;;;5073291;28;20481;-74
2021/08/13 12:51:28;;;;;;;3.93;3.63;;;;;;;;;;5072950;28;20448;-75
2021/08/13 12:53:55;;;;;;;3.40;2.70;;;;;;;;;;5073471;28;20433;-74
2021/08/13 12:56:23;;;;;;;3.23;3.00;;;;;;;;;;5071695;28;20448;-80
2021/08/13 12:58:50;;;;;;;4.53;3.30;;;;;;;;;;5072973;28;20860;-76
2021/08/13 13:01:25;;;;;;;5.80;3.17;;;;;;;;;;5074103;28;20502;-79
2021/08/13 13:04:11;;;;;;;4.07;3.00;;;;;;;;;;5074173;28;20442;-79
2021/08/13 13:06:41;;;;;;;3.30;2.70;;;;;;;;;;5073779;28;20988;-80
2021/08/13 13:09:08;;;;;;;5.70;3.07;;;;;;;;;;5074592;28;20446;-79
2021/08/13 13:11:35;;;;;;;3.37;3.07;;;;;;;;;;5073596;28;20928;-78
2021/08/13 13:14:04;;;;;;;4.50;2.43;;;;;;;;;;5073270;28;20441;-80
2021/08/13 13:16:31;;;;;;;3.53;2.60;;;;;;;;;;5072072;28;20442;-74
2021/08/13 13:19:18;;;;;;;2.40;2.13;;;;;;;;;;5072822;28;20477;-83
2021/08/13 13:21:46;;;;;;;2.77;2.40;;;;;;;;;;5074456;28;20508;-78
2021/08/13 13:24:21;;;;;;;2.50;2.30;;;;;;;;;;5076369;28;20445;-76
2021/08/13 13:26:58;;;;;;;2.57;2.37;;;;;;;;;;5075276;28;20474;-78
2021/08/13 13:29:34;;;;;;;3.17;2.70;;;;;;;;;;5077455;28;20476;-78
2021/08/13 13:32:11;;;;;;;2.87;2.60;;;;;;;;;;5078291;28;20460;-82
2021/08/13 13:34:38;;;;;;;2.93;2.73;;;;;;;;;;5077545;28;20495;-78
2021/08/13 13:37:14;;;;;;;3.00;2.70;;;;;;;;;;5077257;28;20484;-76
2021/08/13 13:39:42;;;;;;;4.37;2.80;;;;;;;;;;5077135;28;20433;-82
2021/08/13 13:42:10;;;;;;;2.80;2.50;;;;;;;;;;5075841;28;20459;-81
2021/08/13 13:44:37;;;;;;;4.70;2.93;;;;;;;;;;5075649;28;20527;-81
2021/08/13 13:47:04;;;;;;;4.90;2.93;;;;;;;;;;5075439;28;20490;-82
2021/08/13 13:49:31;;;;;;;2.80;2.60;;;;;;;;;;5077005;28;20444;-80
2021/08/13 13:51:59;;;;;;;3.97;3.67;;;;;;;;;;5075942;28;20519;-79
2021/08/13 13:54:27;;;;;;;2.90;2.70;;;;;;;;;;5076085;28;20467;-79
2021/08/13 13:56:54;;;;;;;3.57;3.27;;;;;;;;;;5074033;28;20516;-84
2021/08/13 13:59:21;;;;;;;3.63;3.17;;;;;;;;;;5076350;28;20442;-82
2021/08/13 14:01:49;;;;;;;3.43;3.00;;;;;;;;;;5076564;28;20443;-81
2021/08/13 14:04:16;;;;;;;3.50;2.90;;;;;;;;;;5075982;28;20441;-81
2021/08/13 14:06:43;;;;;;;3.37;2.93;;;;;;;;;;5075993;28;20480;-79
2021/08/13 14:09:10;;;;;;;6.40;4.17;;;;;;;;;;5076087;28;20465;-79
2021/08/13 14:11:39;;;;;;;5.53;3.63;;;;;;;;;;5076944;28;20439;-74
2021/08/13 14:14:06;;;;;;;4.27;3.87;;;;;;;;;;5076730;28;20443;-82
2021/08/13 14:16:33;;;;;;;4.17;3.77;;;;;;;;;;5074965;28;20446;-78
2021/08/13 14:19:00;;;;;;;5.37;3.83;;;;;;;;;;5076956;28;20485;-80
2021/08/13 14:21:27;;;;;;;6.83;3.90;;;;;;;;;;5076651;28;20478;-80
2021/08/13 14:23:55;;;;;;;6.17;4.30;;;;;;;;;;5075555;28;20448;-77
2021/08/13 14:26:22;;;;;;;6.30;3.27;;;;;;;;;;5073594;28;20485;-72
2021/08/13 14:28:50;;;;;;;4.30;3.90;;;;;;;;;;5074865;28;20531;-75